Terminal Aerodrome Forecast
Issued by NWS

Home | Current Version | Previous Version | Text Only | Print | Product List | Glossary On
Versions: 1 2 3 4 5 6 7 8 9 10 11 12 13 14 15 16 17 18 19 20 21 22 23 24 25
000
FTUS43 KLOT 232100 AAA
TAFORD
TAF AMD
KORD 232100Z 2321/2424 16014G19KT P6SM OVC050
     FM232200 16013G20KT P6SM VCSH SCT030 BKN035 OVC050
     FM240200 17011KT P6SM SCT025 BKN060
     FM240500 19011KT P6SM BKN100 WS020/21050KT
     FM241400 20015G23KT P6SM SCT010 SCT110
     FM241800 21017G25KT P6SM SCT025 BKN150=

USA.gov is the U.S. government's official web portal to all federal, state and local government web resources and services.